createdAt,value
2023-03-30T00:00:58.423Z,18.25
2023-03-30T00:01:58.409Z,18.26
2023-03-30T00:02:58.584Z,18.30
2023-03-30T00:03:58.563Z,18.27
2023-03-30T00:04:58.655Z,18.30
2023-03-30T00:05:58.403Z,18.25
2023-03-30T00:06:58.409Z,18.23
2023-03-30T00:07:58.396Z,18.27
2023-03-30T00:08:58.389Z,18.30
2023-03-30T00:09:58.380Z,18.26
2023-03-30T00:10:58.387Z,18.32
2023-03-30T00:11:58.378Z,18.23
2023-03-30T00:12:58.374Z,18.32
2023-03-30T00:13:58.376Z,18.32
2023-03-30T00:14:58.372Z,18.30
2023-03-30T00:15:58.367Z,18.33
2023-03-30T00:16:58.396Z,18.30
2023-03-30T00:17:58.382Z,18.36
2023-03-30T00:18:58.349Z,18.32
2023-03-30T00:19:58.379Z,18.33
2023-03-30T00:20:58.404Z,18.27
2023-03-30T00:21:58.362Z,18.35
2023-03-30T00:22:58.363Z,18.26
2023-03-30T00:23:58.349Z,18.32
2023-03-30T00:24:58.325Z,18.27
2023-03-30T00:25:58.334Z,18.30
2023-03-30T00:26:58.342Z,18.29
2023-03-30T00:27:58.329Z,18.26
2023-03-30T00:28:58.325Z,18.29
2023-03-30T00:29:58.329Z,18.26
2023-03-30T00:30:58.318Z,18.35
2023-03-30T00:31:58.339Z,18.26
2023-03-30T00:32:58.310Z,18.39
2023-03-30T00:33:58.293Z,18.33
2023-03-30T00:34:58.293Z,18.25
2023-03-30T00:35:58.409Z,18.36
2023-03-30T00:36:58.284Z,18.29
2023-03-30T00:37:58.282Z,18.33
2023-03-30T00:38:58.309Z,18.27
2023-03-30T00:39:58.284Z,18.33
2023-03-30T00:40:58.272Z,18.30
2023-03-30T00:41:58.281Z,18.26
2023-03-30T00:42:58.269Z,18.33
2023-03-30T00:43:58.267Z,18.26
2023-03-30T00:44:58.268Z,18.33
2023-03-30T00:45:58.283Z,18.27
2023-03-30T00:46:58.271Z,18.29
2023-03-30T00:47:58.294Z,18.30
2023-03-30T00:48:58.316Z,18.33
2023-03-30T00:49:58.251Z,18.29
2023-03-30T00:50:58.252Z,18.33
2023-03-30T00:51:58.247Z,18.33
2023-03-30T00:52:58.233Z,18.26
2023-03-30T00:53:58.225Z,18.36
2023-03-30T00:54:58.259Z,18.33
2023-03-30T00:55:58.249Z,18.30
2023-03-30T00:56:58.241Z,18.32
2023-03-30T00:57:58.235Z,18.39
2023-03-30T00:58:58.215Z,18.36
2023-03-30T00:59:58.215Z,18.33
2023-03-30T01:00:58.211Z,18.33
2023-03-30T01:01:58.242Z,18.36
2023-03-30T01:02:58.295Z,18.36
2023-03-30T01:03:58.273Z,18.39
2023-03-30T01:04:58.196Z,18.37
2023-03-30T01:05:58.186Z,18.27
2023-03-30T01:06:58.203Z,18.33
2023-03-30T01:07:58.178Z,18.39
2023-03-30T01:08:58.181Z,18.33
2023-03-30T01:09:58.180Z,18.37
2023-03-30T01:10:58.214Z,18.36
2023-03-30T01:11:58.199Z,18.33
2023-03-30T01:12:58.162Z,18.32
2023-03-30T01:13:58.182Z,18.30
2023-03-30T01:14:58.179Z,18.35
2023-03-30T01:15:58.205Z,18.33
2023-03-30T01:16:58.155Z,18.32
2023-03-30T01:17:58.246Z,18.41
2023-03-30T01:18:58.164Z,18.36
2023-03-30T01:19:58.154Z,18.42
2023-03-30T01:20:58.139Z,18.36
2023-03-30T01:21:58.144Z,18.36
2023-03-30T01:22:58.134Z,18.39
2023-03-30T01:23:58.131Z,18.36
2023-03-30T01:24:58.133Z,18.33
2023-03-30T01:25:58.117Z,18.35
2023-03-30T01:26:58.135Z,18.33
2023-03-30T01:27:58.108Z,18.33
2023-03-30T01:28:58.108Z,18.36
2023-03-30T01:29:58.117Z,18.41
2023-03-30T01:30:58.195Z,18.41
2023-03-30T01:31:58.101Z,18.36
2023-03-30T01:32:58.123Z,18.36
2023-03-30T01:33:58.112Z,18.39
2023-03-30T01:34:58.184Z,18.33
2023-03-30T01:35:58.229Z,18.37
2023-03-30T01:36:58.103Z,18.36
2023-03-30T01:37:58.087Z,18.35
2023-03-30T01:38:58.092Z,18.39
2023-03-30T01:39:58.074Z,18.39
2023-03-30T01:40:58.106Z,18.37
2023-03-30T01:41:58.091Z,18.33
2023-03-30T01:42:58.086Z,18.42
2023-03-30T01:43:58.080Z,18.33
2023-03-30T01:44:58.069Z,18.37
2023-03-30T01:45:58.070Z,18.36
2023-03-30T01:46:58.112Z,18.47
2023-03-30T01:47:58.100Z,18.36
2023-03-30T01:48:58.034Z,18.41
2023-03-30T01:49:58.039Z,18.37
2023-03-30T01:50:58.047Z,18.35
2023-03-30T01:51:58.042Z,18.41
2023-03-30T01:52:58.046Z,18.41
2023-03-30T01:53:58.056Z,18.39
2023-03-30T01:54:58.041Z,18.44
2023-03-30T01:55:58.028Z,18.39
2023-03-30T01:56:58.079Z,18.44
2023-03-30T01:57:58.019Z,18.42
2023-03-30T01:58:58.047Z,18.47
2023-03-30T01:59:58.028Z,18.39
2023-03-30T02:00:58.001Z,18.45
2023-03-30T02:01:58.008Z,18.36
2023-03-30T02:02:58.093Z,18.37
2023-03-30T02:03:58.197Z,18.36
2023-03-30T02:04:57.998Z,18.42
2023-03-30T02:05:57.991Z,18.44
2023-03-30T02:06:57.984Z,18.45
2023-03-30T02:07:57.999Z,18.45
2023-03-30T02:08:57.974Z,18.41
2023-03-30T02:09:57.971Z,18.47
2023-03-30T02:10:57.959Z,18.47
2023-03-30T02:11:57.964Z,18.42
2023-03-30T02:12:57.968Z,18.44
2023-03-30T02:13:57.960Z,18.42
2023-03-30T02:14:57.989Z,18.41
2023-03-30T02:15:57.990Z,18.35
2023-03-30T02:16:57.947Z,18.50
2023-03-30T02:17:57.969Z,18.45
2023-03-30T02:18:57.932Z,18.39
2023-03-30T02:19:57.947Z,18.45
2023-03-30T02:20:57.936Z,18.39
2023-03-30T02:21:57.950Z,18.37
2023-03-30T02:22:57.936Z,18.44
2023-03-30T02:23:57.940Z,18.37
2023-03-30T02:24:57.932Z,18.45
2023-03-30T02:25:57.954Z,18.47
2023-03-30T02:26:57.907Z,18.41
2023-03-30T02:27:57.926Z,18.42
2023-03-30T02:28:57.904Z,18.44
2023-03-30T02:29:57.915Z,18.42
2023-03-30T02:30:57.913Z,18.48
2023-03-30T02:31:57.988Z,18.36
2023-03-30T02:32:57.948Z,18.45
2023-03-30T02:33:57.902Z,18.42
2023-03-30T02:34:57.887Z,18.37
2023-03-30T02:35:57.928Z,18.51
2023-03-30T02:36:57.894Z,18.45
2023-03-30T02:37:57.896Z,18.41
2023-03-30T02:38:57.919Z,18.45
2023-03-30T02:39:57.882Z,18.42
2023-03-30T02:40:57.884Z,18.45
2023-03-30T02:41:57.881Z,18.47
2023-03-30T02:42:57.863Z,18.45
2023-03-30T02:43:57.866Z,18.44
2023-03-30T02:44:57.845Z,18.51
2023-03-30T02:45:57.884Z,18.47
2023-03-30T02:46:57.882Z,18.47
2023-03-30T02:47:57.882Z,18.48
2023-03-30T02:48:57.830Z,18.45
2023-03-30T02:49:57.864Z,18.36
2023-03-30T02:50:57.869Z,18.42
2023-03-30T02:51:57.826Z,18.48
2023-03-30T02:52:57.837Z,18.44
2023-03-30T02:53:57.836Z,18.47
2023-03-30T02:54:57.826Z,18.42
2023-03-30T02:55:57.809Z,18.48
2023-03-30T02:56:57.862Z,18.45
2023-03-30T02:57:57.812Z,18.51
2023-03-30T02:58:57.823Z,18.45
2023-03-30T02:59:57.823Z,18.48
2023-03-30T03:01:00.400Z,18.45
2023-03-30T03:01:57.857Z,18.51
2023-03-30T03:02:57.972Z,18.51
2023-03-30T03:03:57.799Z,18.50
2023-03-30T03:04:57.789Z,18.44
2023-03-30T03:05:57.810Z,18.45
2023-03-30T03:06:57.776Z,18.47
2023-03-30T03:07:57.774Z,18.45
2023-03-30T03:08:57.835Z,18.51
2023-03-30T03:09:57.778Z,18.48
2023-03-30T03:10:57.786Z,18.48
2023-03-30T03:11:57.782Z,18.45
2023-03-30T03:12:57.757Z,18.42
2023-03-30T03:13:57.771Z,18.44
2023-03-30T03:14:57.770Z,18.50
2023-03-30T03:15:57.749Z,18.51
2023-03-30T03:16:57.765Z,18.52
2023-03-30T03:17:57.766Z,18.47
2023-03-30T03:18:57.763Z,18.47
2023-03-30T03:19:57.750Z,18.47
2023-03-30T03:20:57.744Z,18.50
2023-03-30T03:21:57.728Z,18.47
2023-03-30T03:22:57.721Z,18.42
2023-03-30T03:23:57.719Z,18.45
2023-03-30T03:24:57.735Z,18.45
2023-03-30T03:25:57.724Z,18.47
2023-03-30T03:26:57.733Z,18.47
2023-03-30T03:27:57.704Z,18.48
2023-03-30T03:28:57.729Z,18.52
2023-03-30T03:29:57.703Z,18.45
2023-03-30T03:30:57.760Z,18.51
2023-03-30T03:31:57.707Z,18.48
2023-03-30T03:32:57.727Z,18.47
2023-03-30T03:33:57.686Z,18.48
2023-03-30T03:34:57.713Z,18.48
2023-03-30T03:36:13.758Z,18.45
2023-03-30T03:36:57.686Z,18.47
2023-03-30T03:37:57.669Z,18.51
2023-03-30T03:38:57.680Z,18.45
2023-03-30T03:39:57.676Z,18.48
2023-03-30T03:40:57.686Z,18.42
2023-03-30T03:41:57.668Z,18.50
2023-03-30T03:42:57.668Z,18.50
2023-03-30T03:43:57.670Z,18.48
2023-03-30T03:44:57.670Z,18.45
2023-03-30T03:45:57.701Z,18.47
2023-03-30T03:46:57.795Z,18.45
2023-03-30T03:47:57.794Z,18.45
2023-03-30T03:48:57.656Z,18.45
2023-03-30T03:49:57.640Z,18.45
2023-03-30T03:50:57.665Z,18.50
2023-03-30T03:51:57.644Z,18.52
2023-03-30T03:52:57.621Z,18.45
2023-03-30T03:53:57.622Z,18.45
2023-03-30T03:54:57.646Z,18.45
2023-03-30T03:55:57.620Z,18.42
2023-03-30T03:56:57.620Z,18.51
2023-03-30T03:57:57.596Z,18.51
2023-03-30T03:58:57.612Z,18.45
2023-03-30T03:59:57.611Z,18.52
2023-03-30T04:00:57.607Z,18.45
2023-03-30T04:01:57.650Z,18.50
2023-03-30T04:02:57.623Z,18.48
2023-03-30T04:03:57.609Z,18.41
2023-03-30T04:04:57.636Z,18.48
2023-03-30T04:05:57.594Z,18.51
2023-03-30T04:06:57.612Z,18.47
2023-03-30T04:07:57.578Z,18.48
2023-03-30T04:08:57.579Z,18.42
2023-03-30T04:09:57.577Z,18.51
2023-03-30T04:10:57.559Z,18.47
2023-03-30T04:11:57.586Z,18.48
2023-03-30T04:12:57.567Z,18.50
2023-03-30T04:13:57.572Z,18.44
2023-03-30T04:14:57.544Z,18.47
2023-03-30T04:15:57.617Z,18.51
2023-03-30T04:16:57.551Z,18.48
2023-03-30T04:17:57.577Z,18.50
2023-03-30T04:18:57.598Z,18.54
2023-03-30T04:19:57.528Z,18.47
2023-03-30T04:20:57.545Z,18.48
2023-03-30T04:21:57.517Z,18.45
2023-03-30T04:22:57.552Z,18.50
2023-03-30T04:23:57.519Z,18.54
2023-03-30T04:24:57.530Z,18.47
2023-03-30T04:25:57.503Z,18.48
2023-03-30T04:26:57.508Z,18.50
2023-03-30T04:27:57.522Z,18.47
2023-03-30T04:28:57.508Z,18.47
2023-03-30T04:29:57.498Z,18.52
2023-03-30T04:30:57.513Z,18.48
2023-03-30T04:31:57.532Z,18.51
2023-03-30T04:32:57.588Z,18.45
2023-03-30T04:33:57.487Z,18.47
2023-03-30T04:34:57.490Z,18.51
2023-03-30T04:35:57.510Z,18.50
2023-03-30T04:36:57.494Z,18.50
2023-03-30T04:37:57.486Z,18.51
2023-03-30T04:38:57.514Z,18.55
2023-03-30T04:39:57.468Z,18.47
2023-03-30T04:40:57.480Z,18.50
2023-03-30T04:41:57.481Z,18.45
2023-03-30T04:42:57.479Z,18.50
2023-03-30T04:43:57.466Z,18.51
2023-03-30T04:44:57.451Z,18.55
2023-03-30T04:45:57.531Z,18.54
2023-03-30T04:46:57.484Z,18.51
2023-03-30T04:47:57.479Z,18.52
2023-03-30T04:48:57.444Z,18.58
2023-03-30T04:49:57.443Z,18.55
2023-03-30T04:50:57.449Z,18.57
2023-03-30T04:51:57.439Z,18.62
2023-03-30T04:52:57.420Z,18.62
2023-03-30T04:53:57.437Z,18.54
2023-03-30T04:54:57.440Z,18.57
2023-03-30T04:55:57.419Z,18.60
2023-03-30T04:56:57.451Z,18.67
2023-03-30T04:57:57.405Z,18.65
2023-03-30T04:58:57.432Z,18.60
2023-03-30T04:59:57.401Z,18.73
2023-03-30T05:00:57.409Z,18.73
2023-03-30T05:01:57.444Z,18.75
2023-03-30T05:02:57.513Z,18.75
2023-03-30T05:03:57.409Z,18.73
2023-03-30T05:04:57.410Z,18.73
2023-03-30T05:05:57.390Z,18.75
2023-03-30T05:06:57.461Z,18.76
2023-03-30T05:07:57.385Z,18.85
2023-03-30T05:08:57.393Z,18.87
2023-03-30T05:09:57.367Z,18.80
2023-03-30T05:10:57.418Z,18.85
2023-03-30T05:11:57.384Z,18.88
2023-03-30T05:12:57.383Z,18.99
2023-03-30T05:13:57.378Z,18.91
2023-03-30T05:14:57.359Z,18.94
2023-03-30T05:15:57.355Z,18.95
2023-03-30T05:16:57.359Z,18.98
2023-03-30T05:17:57.398Z,18.95
2023-03-30T05:18:57.365Z,19.04
2023-03-30T05:19:57.342Z,19.04
2023-03-30T05:20:57.340Z,19.00
2023-03-30T05:21:57.352Z,19.04
2023-03-30T05:22:57.353Z,19.04
2023-03-30T05:23:57.343Z,19.08
2023-03-30T05:24:57.338Z,19.08
2023-03-30T05:25:57.370Z,19.08
2023-03-30T05:26:57.366Z,19.14
2023-03-30T05:27:57.323Z,19.21
2023-03-30T05:28:57.356Z,19.16
2023-03-30T05:29:57.318Z,19.25
2023-03-30T05:30:57.373Z,19.28
2023-03-30T05:31:57.322Z,19.31
2023-03-30T05:32:57.377Z,19.25
2023-03-30T05:33:57.328Z,19.21
2023-03-30T05:34:57.317Z,19.25
2023-03-30T05:35:57.359Z,19.23
2023-03-30T05:36:57.452Z,19.32
2023-03-30T05:37:57.314Z,19.36
2023-03-30T05:38:57.294Z,19.36
2023-03-30T05:39:57.313Z,19.44
2023-03-30T05:40:57.301Z,19.37
2023-03-30T05:41:57.298Z,19.48
2023-03-30T05:42:57.320Z,19.40
2023-03-30T05:43:57.296Z,19.47
2023-03-30T05:44:57.302Z,19.44
2023-03-30T05:45:57.313Z,19.51
2023-03-30T05:46:57.296Z,19.58
2023-03-30T05:47:57.317Z,19.55
2023-03-30T05:48:57.301Z,19.58
2023-03-30T05:49:57.267Z,19.63
2023-03-30T05:50:57.276Z,19.59
2023-03-30T05:51:57.281Z,19.61
2023-03-30T05:52:57.269Z,19.55
2023-03-30T05:53:57.276Z,19.62
2023-03-30T05:54:57.286Z,19.65
2023-03-30T05:55:57.289Z,19.66
2023-03-30T05:56:57.303Z,19.69
2023-03-30T05:57:57.287Z,19.65
2023-03-30T05:58:57.273Z,19.63
2023-03-30T05:59:57.260Z,19.62
2023-03-30T06:00:57.270Z,19.63
2023-03-30T06:01:57.244Z,19.68
2023-03-30T06:02:57.354Z,19.69
2023-03-30T06:03:57.384Z,19.73
2023-03-30T06:04:57.307Z,19.74
2023-03-30T06:05:57.282Z,19.74
2023-03-30T06:06:57.236Z,19.78
2023-03-30T06:07:57.225Z,19.69
2023-03-30T06:08:57.228Z,19.74
2023-03-30T06:09:57.244Z,19.76
2023-03-30T06:10:57.246Z,19.69
2023-03-30T06:11:57.229Z,19.71
2023-03-30T06:12:57.251Z,19.78
2023-03-30T06:13:57.218Z,19.71
2023-03-30T06:14:57.255Z,19.73
2023-03-30T06:15:57.420Z,19.74
2023-03-30T06:16:57.431Z,19.80
2023-03-30T06:17:57.578Z,19.71
2023-03-30T06:18:57.224Z,19.73
2023-03-30T06:19:57.226Z,19.76
2023-03-30T06:20:57.221Z,19.73
2023-03-30T06:21:57.212Z,19.80
2023-03-30T06:22:57.265Z,19.71
2023-03-30T06:23:57.207Z,19.78
2023-03-30T06:24:57.246Z,19.76
2023-03-30T06:25:57.192Z,19.71
2023-03-30T06:26:57.187Z,19.73
2023-03-30T06:27:57.261Z,19.77
2023-03-30T06:28:57.183Z,19.69
2023-03-30T06:29:57.181Z,19.71
2023-03-30T06:30:57.197Z,19.66
2023-03-30T06:31:57.228Z,19.69
2023-03-30T06:32:57.240Z,19.63
2023-03-30T06:33:57.178Z,19.66
2023-03-30T06:34:57.199Z,19.69
2023-03-30T06:35:57.346Z,19.69
2023-03-30T06:36:57.184Z,19.58
2023-03-30T06:37:57.180Z,19.65
2023-03-30T06:38:57.182Z,19.69
2023-03-30T06:39:57.180Z,19.69
2023-03-30T06:40:57.193Z,19.69
2023-03-30T06:41:57.178Z,19.73
2023-03-30T06:42:57.206Z,19.63
2023-03-30T06:43:57.155Z,19.73
2023-03-30T06:44:57.204Z,19.73
2023-03-30T06:45:57.215Z,19.69
2023-03-30T06:46:57.197Z,19.71
2023-03-30T06:47:57.182Z,19.69
2023-03-30T06:48:57.166Z,19.71
2023-03-30T06:49:57.166Z,19.65
2023-03-30T06:50:57.163Z,19.69
2023-03-30T06:51:57.143Z,19.63
2023-03-30T06:52:57.153Z,19.65
2023-03-30T06:53:57.151Z,19.59
2023-03-30T06:54:57.146Z,19.59
2023-03-30T06:55:57.145Z,19.69
2023-03-30T06:56:57.173Z,19.65
2023-03-30T06:57:57.135Z,19.74
2023-03-30T06:58:57.146Z,19.71
2023-03-30T06:59:57.140Z,19.61
2023-03-30T07:00:57.225Z,19.68
2023-03-30T07:01:57.300Z,19.71
2023-03-30T07:02:57.508Z,19.66
2023-03-30T07:03:57.179Z,19.65
2023-03-30T07:04:57.129Z,19.69
2023-03-30T07:05:57.095Z,19.61
2023-03-30T07:06:57.126Z,19.65
2023-03-30T07:07:57.118Z,19.63
2023-03-30T07:08:57.106Z,19.65
2023-03-30T07:09:57.113Z,19.63
2023-03-30T07:10:57.092Z,19.58
2023-03-30T07:11:57.110Z,19.61
2023-03-30T07:12:57.090Z,19.58
2023-03-30T07:13:57.087Z,19.58
2023-03-30T07:14:57.094Z,19.66
2023-03-30T07:15:57.090Z,19.65
2023-03-30T07:16:57.400Z,19.62
2023-03-30T07:17:57.154Z,19.59
2023-03-30T07:18:57.110Z,19.59
2023-03-30T07:19:57.084Z,19.58
2023-03-30T07:20:57.070Z,19.56
2023-03-30T07:21:57.064Z,19.39
2023-03-30T07:22:57.061Z,19.36
2023-03-30T07:23:57.071Z,19.21
2023-03-30T07:24:57.057Z,19.07
2023-03-30T07:25:57.058Z,18.98
2023-03-30T07:26:57.050Z,18.94
2023-03-30T07:27:57.063Z,18.84
2023-03-30T07:28:57.100Z,18.73
2023-03-30T07:30:04.585Z,18.58
2023-03-30T07:30:57.081Z,18.62
2023-03-30T07:31:57.135Z,18.54
2023-03-30T07:32:58.684Z,18.48
2023-03-30T07:33:57.058Z,18.44
2023-03-30T07:34:57.051Z,18.36
2023-03-30T07:35:57.049Z,18.30
2023-03-30T07:36:57.018Z,18.25
2023-03-30T07:38:02.878Z,18.18
2023-03-30T07:38:57.046Z,18.20
2023-03-30T07:39:57.040Z,18.20
2023-03-30T07:40:57.014Z,18.08
2023-03-30T07:41:57.027Z,18.03
2023-03-30T07:42:56.998Z,18.02
2023-03-30T07:43:57.007Z,17.99
2023-03-30T07:44:56.989Z,17.96
2023-03-30T07:45:57.033Z,17.99
2023-03-30T07:46:56.998Z,17.96
2023-03-30T07:47:57.102Z,17.92
2023-03-30T07:48:56.984Z,18.05
2023-03-30T07:49:56.963Z,17.96
2023-03-30T07:50:56.987Z,17.90
2023-03-30T07:51:56.969Z,17.93
2023-03-30T07:52:56.963Z,17.89
2023-03-30T07:53:56.972Z,17.86
2023-03-30T07:54:56.930Z,17.93
2023-03-30T07:55:56.940Z,17.95
2023-03-30T07:56:56.957Z,17.93
2023-03-30T07:57:56.931Z,17.89
2023-03-30T07:58:57.278Z,17.89
2023-03-30T07:59:56.920Z,17.95
2023-03-30T08:00:56.925Z,17.89
2023-03-30T08:01:57.093Z,17.90
2023-03-30T08:02:56.978Z,17.89
2023-03-30T08:03:56.998Z,17.86
2023-03-30T08:04:57.219Z,17.93
2023-03-30T08:05:56.887Z,17.87
2023-03-30T08:06:57.021Z,17.84
2023-03-30T08:07:57.060Z,17.82
2023-03-30T08:08:56.876Z,17.87
2023-03-30T08:09:56.876Z,17.82
2023-03-30T08:10:56.969Z,17.95
2023-03-30T08:11:56.868Z,17.87
2023-03-30T08:12:56.892Z,17.87
2023-03-30T08:13:56.855Z,17.84
2023-03-30T08:14:56.876Z,17.89
2023-03-30T08:15:56.898Z,17.87
2023-03-30T08:16:56.830Z,17.86
2023-03-30T08:17:56.890Z,17.82
2023-03-30T08:18:56.815Z,17.81
2023-03-30T08:19:56.847Z,17.87
2023-03-30T08:20:56.898Z,17.82
2023-03-30T08:21:57.009Z,17.87
2023-03-30T08:22:56.899Z,17.79
2023-03-30T08:23:56.855Z,17.87
2023-03-30T08:24:56.868Z,17.82
2023-03-30T08:25:56.868Z,17.81
2023-03-30T08:26:56.890Z,17.78
2023-03-30T08:27:56.776Z,17.78
2023-03-30T08:28:56.793Z,17.79
2023-03-30T08:29:56.771Z,17.84
2023-03-30T08:30:56.758Z,17.89
2023-03-30T08:31:56.833Z,17.87
2023-03-30T08:32:56.779Z,17.79
2023-03-30T08:33:56.731Z,17.79
2023-03-30T08:34:56.915Z,17.84
2023-03-30T08:35:57.013Z,17.70
2023-03-30T08:36:56.989Z,17.77
2023-03-30T08:37:56.711Z,17.75
2023-03-30T08:38:56.724Z,17.75
2023-03-30T08:39:56.723Z,17.78
2023-03-30T08:40:56.690Z,17.77
2023-03-30T08:41:56.688Z,17.74
2023-03-30T08:42:56.682Z,17.72
2023-03-30T08:43:56.678Z,17.72
2023-03-30T08:44:56.689Z,17.77
2023-03-30T08:45:56.706Z,17.74
2023-03-30T08:46:56.704Z,17.77
2023-03-30T08:47:56.788Z,17.72
2023-03-30T08:48:56.644Z,17.78
2023-03-30T08:49:56.635Z,17.75
2023-03-30T08:50:56.641Z,17.75
2023-03-30T08:51:56.631Z,17.75
2023-03-30T08:52:56.634Z,17.77
2023-03-30T08:53:56.629Z,17.72
2023-03-30T08:54:56.635Z,17.77
2023-03-30T08:55:56.633Z,17.77
2023-03-30T08:56:56.653Z,17.72
2023-03-30T08:57:56.650Z,17.74
2023-03-30T08:58:56.663Z,17.75
2023-03-30T08:59:56.596Z,17.71
2023-03-30T09:00:56.633Z,17.74
2023-03-30T09:01:56.620Z,17.81
2023-03-30T09:02:56.633Z,17.75
2023-03-30T09:03:56.583Z,17.77
2023-03-30T09:04:56.609Z,17.77
2023-03-30T09:05:56.585Z,17.75
2023-03-30T09:06:56.541Z,17.77
2023-03-30T09:07:56.548Z,17.75
2023-03-30T09:08:56.534Z,17.70
2023-03-30T09:09:56.547Z,17.78
2023-03-30T09:10:56.547Z,17.74
2023-03-30T09:11:56.551Z,17.74
2023-03-30T09:12:56.535Z,17.74
2023-03-30T09:13:56.534Z,17.72
2023-03-30T09:14:56.502Z,17.63
2023-03-30T09:15:56.505Z,17.58
2023-03-30T09:16:56.629Z,17.55
2023-03-30T09:17:56.563Z,17.58
2023-03-30T09:18:56.502Z,17.63
2023-03-30T09:19:56.474Z,17.51
2023-03-30T09:20:56.469Z,17.44
2023-03-30T09:21:56.511Z,17.52
2023-03-30T09:22:56.450Z,17.46
2023-03-30T09:23:56.477Z,17.48
2023-03-30T09:24:56.451Z,17.37
2023-03-30T09:25:57.407Z,17.37
2023-03-30T09:26:56.484Z,17.34
2023-03-30T09:27:56.438Z,17.33
2023-03-30T09:28:56.431Z,17.31
2023-03-30T09:29:56.456Z,17.25
2023-03-30T09:30:56.408Z,17.31
2023-03-30T09:31:56.455Z,17.31
2023-03-30T09:32:56.434Z,17.28
2023-03-30T09:33:56.398Z,17.18
2023-03-30T09:34:56.389Z,17.16
2023-03-30T09:35:56.398Z,17.22
2023-03-30T09:36:56.372Z,17.15
2023-03-30T09:37:56.365Z,17.16
2023-03-30T09:38:56.367Z,17.18
2023-03-30T09:39:56.366Z,17.14
2023-03-30T09:40:56.344Z,17.16
2023-03-30T09:41:56.338Z,17.01
2023-03-30T09:42:56.399Z,17.08
2023-03-30T09:43:56.339Z,17.07
2023-03-30T09:44:56.385Z,17.08
2023-03-30T09:45:56.340Z,16.94
2023-03-30T09:46:56.345Z,16.97
2023-03-30T09:47:56.344Z,16.86
2023-03-30T09:48:56.306Z,16.75
2023-03-30T09:49:56.332Z,16.70
2023-03-30T09:50:56.278Z,16.57
2023-03-30T09:51:56.289Z,16.60
2023-03-30T09:52:56.269Z,16.48
2023-03-30T09:53:56.271Z,16.49
2023-03-30T09:54:56.258Z,16.31
2023-03-30T09:55:56.256Z,16.20
2023-03-30T09:56:56.271Z,16.20
2023-03-30T09:57:56.227Z,16.11
2023-03-30T09:58:56.274Z,16.08
2023-03-30T09:59:56.217Z,16.07
2023-03-30T10:00:56.204Z,16.01
2023-03-30T10:01:56.230Z,16.05
2023-03-30T10:02:56.264Z,16.07
2023-03-30T10:03:56.375Z,15.93
2023-03-30T10:04:56.244Z,16.08
2023-03-30T10:05:56.181Z,15.93
2023-03-30T10:06:58.706Z,16.01
2023-03-30T10:07:56.168Z,15.93
2023-03-30T10:08:56.155Z,15.84
2023-03-30T10:09:56.156Z,15.90
2023-03-30T10:10:56.164Z,15.96
2023-03-30T10:11:56.140Z,15.93
2023-03-30T10:12:56.191Z,15.86
2023-03-30T10:13:56.115Z,15.86
2023-03-30T10:14:56.124Z,15.72
2023-03-30T10:15:56.185Z,15.75
2023-03-30T10:16:56.098Z,15.89
2023-03-30T10:17:56.137Z,15.87
2023-03-30T10:18:56.093Z,15.89
2023-03-30T10:20:07.227Z,15.83
2023-03-30T10:20:56.054Z,15.83
2023-03-30T10:21:56.089Z,15.80
2023-03-30T10:22:56.044Z,15.83
2023-03-30T10:23:56.047Z,15.69
2023-03-30T10:24:56.046Z,15.78
2023-03-30T10:25:56.045Z,15.69
2023-03-30T10:26:56.028Z,15.74
2023-03-30T10:27:56.068Z,15.74
2023-03-30T10:28:56.004Z,15.74
2023-03-30T10:29:56.003Z,15.78
2023-03-30T10:30:56.031Z,15.71
2023-03-30T10:31:56.137Z,15.74
2023-03-30T10:32:56.250Z,15.75
2023-03-30T10:33:55.983Z,15.75
2023-03-30T10:34:55.982Z,15.80
2023-03-30T10:35:56.038Z,15.69
2023-03-30T10:36:55.946Z,15.72
2023-03-30T10:37:55.937Z,15.72
2023-03-30T10:38:55.929Z,15.75
2023-03-30T10:39:55.972Z,15.80
2023-03-30T10:40:55.917Z,15.72
2023-03-30T10:41:57.963Z,15.78
2023-03-30T10:42:55.932Z,15.80
2023-03-30T10:43:55.901Z,15.78
2023-03-30T10:44:55.907Z,15.89
2023-03-30T10:45:58.328Z,15.87
2023-03-30T10:46:55.960Z,15.89
2023-03-30T10:47:58.029Z,15.90
2023-03-30T10:48:55.878Z,15.86
2023-03-30T10:49:55.862Z,15.86
2023-03-30T10:50:55.848Z,15.83
2023-03-30T10:51:55.874Z,15.83
2023-03-30T10:52:59.017Z,15.87
2023-03-30T10:53:57.434Z,15.92
2023-03-30T10:54:55.818Z,15.86
2023-03-30T10:55:55.815Z,15.93
2023-03-30T10:56:55.851Z,15.92
2023-03-30T10:57:55.808Z,15.92
2023-03-30T10:58:55.781Z,15.90
2023-03-30T10:59:57.962Z,15.97
2023-03-30T11:00:55.807Z,15.97
2023-03-30T11:01:55.798Z,15.93
2023-03-30T11:02:55.860Z,15.93
2023-03-30T11:03:55.825Z,15.97
2023-03-30T11:04:55.739Z,16.00
2023-03-30T11:05:55.752Z,16.00
2023-03-30T11:06:55.767Z,15.93
2023-03-30T11:07:55.733Z,15.92
2023-03-30T11:08:55.733Z,16.01
2023-03-30T11:09:55.731Z,16.01
2023-03-30T11:10:55.700Z,16.05
2023-03-30T11:11:55.702Z,16.02
2023-03-30T11:12:55.682Z,16.00
2023-03-30T11:13:55.710Z,16.11
2023-03-30T11:14:55.684Z,16.08
2023-03-30T11:15:55.709Z,16.07
2023-03-30T11:16:55.669Z,16.09
2023-03-30T11:17:55.698Z,16.05
2023-03-30T11:18:55.677Z,16.08
2023-03-30T11:19:55.638Z,16.08
2023-03-30T11:20:55.663Z,16.09
2023-03-30T11:21:55.641Z,16.08
2023-03-30T11:22:55.653Z,16.14
2023-03-30T11:23:55.625Z,16.20
2023-03-30T11:24:55.608Z,16.20
2023-03-30T11:25:55.597Z,16.21
2023-03-30T11:26:55.600Z,16.21
2023-03-30T11:27:56.577Z,16.12
2023-03-30T11:28:55.587Z,16.30
2023-03-30T11:29:55.574Z,16.35
2023-03-30T11:30:55.559Z,16.31
2023-03-30T11:31:55.611Z,16.34
2023-03-30T11:32:55.593Z,16.38
2023-03-30T11:33:55.537Z,16.35
2023-03-30T11:34:55.544Z,16.33
2023-03-30T11:35:55.612Z,16.38
2023-03-30T11:36:55.527Z,16.31
2023-03-30T11:37:55.526Z,16.31
2023-03-30T11:38:55.506Z,16.31
2023-03-30T11:39:55.512Z,16.34
2023-03-30T11:40:55.519Z,16.42
2023-03-30T11:41:55.484Z,16.45
2023-03-30T11:42:55.499Z,16.41
2023-03-30T11:43:55.470Z,16.41
2023-03-30T11:44:55.464Z,16.46
2023-03-30T11:45:55.490Z,16.50
2023-03-30T11:46:55.506Z,16.43
2023-03-30T11:47:55.492Z,16.49
2023-03-30T11:48:55.455Z,16.50
2023-03-30T11:49:55.435Z,16.50
2023-03-30T11:50:55.459Z,16.58
2023-03-30T11:51:55.433Z,16.52
2023-03-30T11:52:55.435Z,16.58
2023-03-30T11:53:55.426Z,16.60
2023-03-30T11:55:03.078Z,16.63
2023-03-30T11:55:55.392Z,16.75
2023-03-30T11:56:55.455Z,16.75
2023-03-30T11:57:55.373Z,16.68
2023-03-30T11:58:55.371Z,16.78
2023-03-30T11:59:55.368Z,16.76
2023-03-30T12:00:55.380Z,16.76
2023-03-30T12:01:55.358Z,16.75
2023-03-30T12:02:55.388Z,16.83
2023-03-30T12:03:55.445Z,16.85
2023-03-30T12:04:55.382Z,16.88
2023-03-30T12:05:55.326Z,16.91
2023-03-30T12:06:55.447Z,16.83
2023-03-30T12:07:55.313Z,16.94
2023-03-30T12:08:55.338Z,16.97
2023-03-30T12:09:55.304Z,16.96
2023-03-30T12:10:55.313Z,16.93
2023-03-30T12:11:55.300Z,16.93
2023-03-30T12:12:55.297Z,17.06
2023-03-30T12:13:55.269Z,17.03
2023-03-30T12:14:55.272Z,17.03
2023-03-30T12:15:55.293Z,17.04
2023-03-30T12:16:55.279Z,17.03
2023-03-30T12:17:55.326Z,17.07
2023-03-30T12:18:55.252Z,17.15
2023-03-30T12:19:56.582Z,17.12
2023-03-30T12:20:55.250Z,17.08
2023-03-30T12:21:55.233Z,17.06
2023-03-30T12:22:55.246Z,17.15
2023-03-30T12:23:55.233Z,17.04
2023-03-30T12:24:55.208Z,17.14
2023-03-30T12:25:55.213Z,17.16
2023-03-30T12:27:05.385Z,17.15
2023-03-30T12:27:55.198Z,17.31
2023-03-30T12:29:32.693Z,17.26
2023-03-30T12:30:01.587Z,17.31
2023-03-30T12:30:55.175Z,17.34
2023-03-30T12:31:55.183Z,17.37
2023-03-30T12:32:55.234Z,17.26
2023-03-30T12:33:55.188Z,17.43
2023-03-30T12:34:55.175Z,17.46
2023-03-30T12:35:55.168Z,17.48
2023-03-30T12:36:55.148Z,17.51
2023-03-30T12:37:55.148Z,17.56
2023-03-30T12:38:55.163Z,17.59
2023-03-30T12:39:55.139Z,17.55
2023-03-30T12:40:55.144Z,17.62
2023-03-30T12:41:56.946Z,17.63
2023-03-30T12:42:55.124Z,17.72
2023-03-30T12:43:55.123Z,17.72
2023-03-30T12:44:55.114Z,17.59
2023-03-30T12:45:55.135Z,17.71
2023-03-30T12:46:55.110Z,17.72
2023-03-30T12:47:55.112Z,17.79
2023-03-30T12:48:55.104Z,17.87
2023-03-30T12:49:55.095Z,17.90
2023-03-30T12:50:55.108Z,17.90
2023-03-30T12:51:55.079Z,17.86
2023-03-30T12:52:55.076Z,17.89